sensor_id;sensor_type;location;lat;lon;timestamp;P1;durP1;ratioP1;P2;durP2;ratioP2
17618;SDS011;8928;51.678;6.074;2022-12-08T00:02:08;19.03;;;8.73;;
17618;SDS011;8928;51.678;6.074;2022-12-08T00:04:55;22.37;;;9.30;;
17618;SDS011;8928;51.678;6.074;2022-12-08T00:07:56;23.77;;;10.50;;
17618;SDS011;8928;51.678;6.074;2022-12-08T00:11:01;24.90;;;10.10;;
17618;SDS011;8928;51.678;6.074;2022-12-08T00:13:48;21.93;;;9.80;;
17618;SDS011;8928;51.678;6.074;2022-12-08T00:16:35;19.73;;;10.57;;
17618;SDS011;8928;51.678;6.074;2022-12-08T00:19:23;21.03;;;10.80;;
17618;SDS011;8928;51.678;6.074;2022-12-08T00:22:11;25.63;;;11.50;;
17618;SDS011;8928;51.678;6.074;2022-12-08T00:24:59;26.43;;;12.43;;
17618;SDS011;8928;51.678;6.074;2022-12-08T00:27:46;30.33;;;12.67;;
17618;SDS011;8928;51.678;6.074;2022-12-08T00:30:33;28.13;;;13.03;;
17618;SDS011;8928;51.678;6.074;2022-12-08T00:33:20;33.50;;;14.90;;
17618;SDS011;8928;51.678;6.074;2022-12-08T00:36:09;34.13;;;15.30;;
17618;SDS011;8928;51.678;6.074;2022-12-08T00:38:58;34.17;;;16.07;;
17618;SDS011;8928;51.678;6.074;2022-12-08T00:41:45;34.80;;;17.60;;
17618;SDS011;8928;51.678;6.074;2022-12-08T00:44:49;37.00;;;18.17;;
17618;SDS011;8928;51.678;6.074;2022-12-08T00:47:36;39.87;;;20.40;;
17618;SDS011;8928;51.678;6.074;2022-12-08T00:50:23;47.30;;;19.83;;
17618;SDS011;8928;51.678;6.074;2022-12-08T00:53:11;50.47;;;23.03;;
17618;SDS011;8928;51.678;6.074;2022-12-08T00:55:58;48.60;;;23.97;;
17618;SDS011;8928;51.678;6.074;2022-12-08T00:58:45;50.27;;;25.17;;
17618;SDS011;8928;51.678;6.074;2022-12-08T01:01:33;51.37;;;25.33;;
17618;SDS011;8928;51.678;6.074;2022-12-08T01:04:20;53.47;;;26.23;;
17618;SDS011;8928;51.678;6.074;2022-12-08T01:07:07;56.57;;;26.87;;
17618;SDS011;8928;51.678;6.074;2022-12-08T01:09:56;59.50;;;29.40;;
17618;SDS011;8928;51.678;6.074;2022-12-08T01:12:43;59.83;;;29.27;;
17618;SDS011;8928;51.678;6.074;2022-12-08T01:15:30;62.70;;;30.23;;
17618;SDS011;8928;51.678;6.074;2022-12-08T01:18:17;65.50;;;31.67;;
17618;SDS011;8928;51.678;6.074;2022-12-08T01:21:05;67.60;;;31.53;;
17618;SDS011;8928;51.678;6.074;2022-12-08T01:23:53;70.07;;;32.23;;
17618;SDS011;8928;51.678;6.074;2022-12-08T01:26:41;70.47;;;34.30;;
17618;SDS011;8928;51.678;6.074;2022-12-08T01:29:29;68.53;;;33.67;;
17618;SDS011;8928;51.678;6.074;2022-12-08T01:32:16;77.57;;;34.03;;
17618;SDS011;8928;51.678;6.074;2022-12-08T01:35:03;69.40;;;34.33;;
17618;SDS011;8928;51.678;6.074;2022-12-08T01:37:50;78.07;;;35.20;;
17618;SDS011;8928;51.678;6.074;2022-12-08T01:40:37;74.50;;;35.23;;
17618;SDS011;8928;51.678;6.074;2022-12-08T01:46:37;73.40;;;35.60;;
17618;SDS011;8928;51.678;6.074;2022-12-08T01:49:26;74.03;;;35.07;;
17618;SDS011;8928;51.678;6.074;2022-12-08T01:52:15;74.33;;;35.17;;
17618;SDS011;8928;51.678;6.074;2022-12-08T01:55:05;70.67;;;34.83;;
17618;SDS011;8928;51.678;6.074;2022-12-08T01:57:57;75.67;;;35.53;;
17618;SDS011;8928;51.678;6.074;2022-12-08T02:00:49;73.77;;;35.47;;
17618;SDS011;8928;51.678;6.074;2022-12-08T02:03:38;73.97;;;35.33;;
17618;SDS011;8928;51.678;6.074;2022-12-08T02:06:29;71.77;;;34.67;;
17618;SDS011;8928;51.678;6.074;2022-12-08T02:09:19;72.63;;;33.90;;
17618;SDS011;8928;51.678;6.074;2022-12-08T02:12:06;71.17;;;33.27;;
17618;SDS011;8928;51.678;6.074;2022-12-08T02:14:55;73.93;;;34.13;;
17618;SDS011;8928;51.678;6.074;2022-12-08T02:17:48;72.37;;;34.30;;
17618;SDS011;8928;51.678;6.074;2022-12-08T02:20:48;74.87;;;34.23;;
17618;SDS011;8928;51.678;6.074;2022-12-08T02:23:45;71.13;;;33.30;;
17618;SDS011;8928;51.678;6.074;2022-12-08T02:26:44;72.87;;;34.73;;
17618;SDS011;8928;51.678;6.074;2022-12-08T02:36:25;72.90;;;33.73;;
17618;SDS011;8928;51.678;6.074;2022-12-08T02:39:21;67.77;;;32.53;;
17618;SDS011;8928;51.678;6.074;2022-12-08T02:42:16;68.97;;;31.17;;
17618;SDS011;8928;51.678;6.074;2022-12-08T02:45:11;70.47;;;31.40;;
17618;SDS011;8928;51.678;6.074;2022-12-08T02:48:02;68.70;;;31.87;;
17618;SDS011;8928;51.678;6.074;2022-12-08T02:50:50;73.80;;;32.17;;
17618;SDS011;8928;51.678;6.074;2022-12-08T02:53:38;73.97;;;31.80;;
17618;SDS011;8928;51.678;6.074;2022-12-08T02:56:32;67.53;;;30.30;;
17618;SDS011;8928;51.678;6.074;2022-12-08T02:59:31;64.47;;;30.07;;
17618;SDS011;8928;51.678;6.074;2022-12-08T03:02:34;64.17;;;29.23;;
17618;SDS011;8928;51.678;6.074;2022-12-08T03:05:32;60.60;;;28.90;;
17618;SDS011;8928;51.678;6.074;2022-12-08T03:08:31;58.30;;;27.77;;
17618;SDS011;8928;51.678;6.074;2022-12-08T03:11:25;61.80;;;28.33;;
17618;SDS011;8928;51.678;6.074;2022-12-08T03:14:20;58.93;;;26.83;;
17618;SDS011;8928;51.678;6.074;2022-12-08T03:17:07;59.03;;;27.43;;
17618;SDS011;8928;51.678;6.074;2022-12-08T03:19:55;63.17;;;28.33;;
17618;SDS011;8928;51.678;6.074;2022-12-08T03:22:46;61.67;;;27.57;;
17618;SDS011;8928;51.678;6.074;2022-12-08T03:25:37;58.13;;;27.63;;
17618;SDS011;8928;51.678;6.074;2022-12-08T03:28:30;57.47;;;26.57;;
17618;SDS011;8928;51.678;6.074;2022-12-08T03:31:17;57.13;;;26.97;;
17618;SDS011;8928;51.678;6.074;2022-12-08T03:34:05;59.50;;;26.37;;
17618;SDS011;8928;51.678;6.074;2022-12-08T03:36:54;58.13;;;26.67;;
17618;SDS011;8928;51.678;6.074;2022-12-08T03:39:42;56.10;;;25.87;;
17618;SDS011;8928;51.678;6.074;2022-12-08T03:42:29;54.43;;;26.40;;
17618;SDS011;8928;51.678;6.074;2022-12-08T03:45:17;52.63;;;25.93;;
17618;SDS011;8928;51.678;6.074;2022-12-08T03:48:04;54.60;;;25.13;;
17618;SDS011;8928;51.678;6.074;2022-12-08T03:50:51;53.80;;;25.37;;
17618;SDS011;8928;51.678;6.074;2022-12-08T03:53:38;47.70;;;23.93;;
17618;SDS011;8928;51.678;6.074;2022-12-08T03:56:28;54.50;;;25.07;;
17618;SDS011;8928;51.678;6.074;2022-12-08T03:59:16;50.27;;;23.93;;
17618;SDS011;8928;51.678;6.074;2022-12-08T04:02:04;44.07;;;21.50;;
17618;SDS011;8928;51.678;6.074;2022-12-08T04:04:51;51.07;;;21.60;;
17618;SDS011;8928;51.678;6.074;2022-12-08T04:07:38;45.37;;;21.07;;
17618;SDS011;8928;51.678;6.074;2022-12-08T04:10:25;39.87;;;18.80;;
17618;SDS011;8928;51.678;6.074;2022-12-08T04:13:12;37.63;;;18.40;;
17618;SDS011;8928;51.678;6.074;2022-12-08T04:15:59;36.83;;;18.37;;
17618;SDS011;8928;51.678;6.074;2022-12-08T04:18:48;36.67;;;17.43;;
17618;SDS011;8928;51.678;6.074;2022-12-08T04:21:35;39.37;;;17.83;;
17618;SDS011;8928;51.678;6.074;2022-12-08T04:24:22;38.37;;;17.70;;
17618;SDS011;8928;51.678;6.074;2022-12-08T04:27:09;32.53;;;15.90;;
17618;SDS011;8928;51.678;6.074;2022-12-08T04:29:56;32.30;;;15.20;;
17618;SDS011;8928;51.678;6.074;2022-12-08T04:32:43;26.70;;;13.87;;
17618;SDS011;8928;51.678;6.074;2022-12-08T04:35:32;28.17;;;14.37;;
17618;SDS011;8928;51.678;6.074;2022-12-08T04:38:19;24.43;;;12.23;;
17618;SDS011;8928;51.678;6.074;2022-12-08T04:41:06;22.97;;;11.93;;
17618;SDS011;8928;51.678;6.074;2022-12-08T04:43:53;24.27;;;12.03;;
17618;SDS011;8928;51.678;6.074;2022-12-08T04:46:40;23.63;;;11.43;;
17618;SDS011;8928;51.678;6.074;2022-12-08T04:49:27;20.70;;;10.60;;
17618;SDS011;8928;51.678;6.074;2022-12-08T04:52:15;20.77;;;10.20;;
17618;SDS011;8928;51.678;6.074;2022-12-08T04:55:03;19.77;;;9.67;;
17618;SDS011;8928;51.678;6.074;2022-12-08T04:57:50;20.47;;;9.60;;
17618;SDS011;8928;51.678;6.074;2022-12-08T05:00:37;20.30;;;9.37;;
17618;SDS011;8928;51.678;6.074;2022-12-08T05:03:25;17.57;;;8.73;;
17618;SDS011;8928;51.678;6.074;2022-12-08T05:06:12;19.33;;;8.60;;
17618;SDS011;8928;51.678;6.074;2022-12-08T05:09:01;18.53;;;9.07;;
17618;SDS011;8928;51.678;6.074;2022-12-08T05:11:48;21.30;;;9.77;;
17618;SDS011;8928;51.678;6.074;2022-12-08T05:14:35;19.80;;;9.73;;
17618;SDS011;8928;51.678;6.074;2022-12-08T05:17:22;20.27;;;10.03;;
17618;SDS011;8928;51.678;6.074;2022-12-08T05:20:10;21.40;;;10.60;;
17618;SDS011;8928;51.678;6.074;2022-12-08T05:22:57;23.80;;;11.23;;
17618;SDS011;8928;51.678;6.074;2022-12-08T05:25:45;24.00;;;11.53;;
17618;SDS011;8928;51.678;6.074;2022-12-08T05:28:32;22.13;;;11.17;;
17618;SDS011;8928;51.678;6.074;2022-12-08T05:31:20;22.67;;;11.40;;
17618;SDS011;8928;51.678;6.074;2022-12-08T05:34:07;20.90;;;10.67;;
17618;SDS011;8928;51.678;6.074;2022-12-08T05:36:54;22.20;;;9.33;;
17618;SDS011;8928;51.678;6.074;2022-12-08T05:39:41;20.67;;;9.90;;
17618;SDS011;8928;51.678;6.074;2022-12-08T05:42:29;18.53;;;8.93;;
17618;SDS011;8928;51.678;6.074;2022-12-08T05:45:16;21.53;;;9.07;;
17618;SDS011;8928;51.678;6.074;2022-12-08T05:48:03;17.47;;;8.87;;
17618;SDS011;8928;51.678;6.074;2022-12-08T05:50:51;17.47;;;8.40;;
17618;SDS011;8928;51.678;6.074;2022-12-08T05:53:38;16.33;;;7.97;;
17618;SDS011;8928;51.678;6.074;2022-12-08T05:56:25;17.10;;;8.90;;
17618;SDS011;8928;51.678;6.074;2022-12-08T05:59:13;17.23;;;8.53;;
17618;SDS011;8928;51.678;6.074;2022-12-08T06:02:00;17.13;;;9.00;;
17618;SDS011;8928;51.678;6.074;2022-12-08T06:04:48;18.13;;;8.60;;
17618;SDS011;8928;51.678;6.074;2022-12-08T06:07:35;18.20;;;9.10;;
17618;SDS011;8928;51.678;6.074;2022-12-08T06:10:22;21.47;;;10.07;;
17618;SDS011;8928;51.678;6.074;2022-12-08T06:13:09;24.53;;;11.03;;
17618;SDS011;8928;51.678;6.074;2022-12-08T06:16:02;24.43;;;11.63;;
17618;SDS011;8928;51.678;6.074;2022-12-08T06:18:50;23.63;;;11.80;;
17618;SDS011;8928;51.678;6.074;2022-12-08T06:21:38;26.27;;;12.67;;
17618;SDS011;8928;51.678;6.074;2022-12-08T06:24:25;27.87;;;13.50;;
17618;SDS011;8928;51.678;6.074;2022-12-08T06:27:12;29.07;;;13.40;;
17618;SDS011;8928;51.678;6.074;2022-12-08T06:29:59;32.33;;;14.73;;
17618;SDS011;8928;51.678;6.074;2022-12-08T06:32:47;35.83;;;15.73;;
17618;SDS011;8928;51.678;6.074;2022-12-08T06:35:35;35.97;;;15.97;;
17618;SDS011;8928;51.678;6.074;2022-12-08T06:38:22;39.33;;;16.03;;
17618;SDS011;8928;51.678;6.074;2022-12-08T06:41:10;38.97;;;15.63;;
17618;SDS011;8928;51.678;6.074;2022-12-08T06:43:58;36.33;;;14.07;;
17618;SDS011;8928;51.678;6.074;2022-12-08T06:46:45;31.40;;;12.83;;
17618;SDS011;8928;51.678;6.074;2022-12-08T06:49:33;28.50;;;12.60;;
17618;SDS011;8928;51.678;6.074;2022-12-08T06:52:20;28.93;;;11.20;;
17618;SDS011;8928;51.678;6.074;2022-12-08T06:55:08;27.07;;;10.97;;
17618;SDS011;8928;51.678;6.074;2022-12-08T06:57:55;24.47;;;11.13;;
17618;SDS011;8928;51.678;6.074;2022-12-08T07:00:42;27.33;;;10.77;;
17618;SDS011;8928;51.678;6.074;2022-12-08T07:03:29;25.37;;;10.77;;
17618;SDS011;8928;51.678;6.074;2022-12-08T07:06:20;27.37;;;10.77;;
17618;SDS011;8928;51.678;6.074;2022-12-08T07:09:09;25.53;;;10.53;;
17618;SDS011;8928;51.678;6.074;2022-12-08T07:11:56;24.20;;;10.23;;
17618;SDS011;8928;51.678;6.074;2022-12-08T07:14:43;23.83;;;9.77;;
17618;SDS011;8928;51.678;6.074;2022-12-08T07:17:30;20.87;;;9.53;;
17618;SDS011;8928;51.678;6.074;2022-12-08T07:20:17;21.17;;;8.90;;
17618;SDS011;8928;51.678;6.074;2022-12-08T07:23:05;19.30;;;9.10;;
17618;SDS011;8928;51.678;6.074;2022-12-08T07:25:58;21.50;;;9.40;;
17618;SDS011;8928;51.678;6.074;2022-12-08T07:28:46;17.40;;;8.40;;
17618;SDS011;8928;51.678;6.074;2022-12-08T07:31:33;15.73;;;8.40;;
17618;SDS011;8928;51.678;6.074;2022-12-08T07:34:20;17.53;;;8.90;;
17618;SDS011;8928;51.678;6.074;2022-12-08T07:37:07;17.13;;;8.70;;
17618;SDS011;8928;51.678;6.074;2022-12-08T07:39:55;22.80;;;9.20;;
17618;SDS011;8928;51.678;6.074;2022-12-08T07:42:42;17.07;;;8.60;;
17618;SDS011;8928;51.678;6.074;2022-12-08T07:45:29;19.90;;;8.73;;
17618;SDS011;8928;51.678;6.074;2022-12-08T07:48:16;16.50;;;8.27;;
17618;SDS011;8928;51.678;6.074;2022-12-08T07:51:04;17.90;;;8.47;;
17618;SDS011;8928;51.678;6.074;2022-12-08T07:53:51;25.17;;;8.67;;
17618;SDS011;8928;51.678;6.074;2022-12-08T07:56:40;21.43;;;8.60;;
17618;SDS011;8928;51.678;6.074;2022-12-08T07:59:27;18.77;;;8.13;;
17618;SDS011;8928;51.678;6.074;2022-12-08T08:02:17;16.30;;;7.70;;
17618;SDS011;8928;51.678;6.074;2022-12-08T08:05:05;14.43;;;7.33;;
17618;SDS011;8928;51.678;6.074;2022-12-08T08:07:52;16.47;;;7.30;;
17618;SDS011;8928;51.678;6.074;2022-12-08T08:10:39;13.80;;;6.73;;
17618;SDS011;8928;51.678;6.074;2022-12-08T08:13:28;16.07;;;6.90;;
17618;SDS011;8928;51.678;6.074;2022-12-08T08:16:15;12.97;;;6.73;;
17618;SDS011;8928;51.678;6.074;2022-12-08T08:19:02;13.10;;;7.13;;
17618;SDS011;8928;51.678;6.074;2022-12-08T08:21:49;13.93;;;7.17;;
17618;SDS011;8928;51.678;6.074;2022-12-08T08:24:36;18.70;;;7.93;;
17618;SDS011;8928;51.678;6.074;2022-12-08T08:27:23;14.23;;;6.83;;
17618;SDS011;8928;51.678;6.074;2022-12-08T08:30:12;15.07;;;7.20;;
17618;SDS011;8928;51.678;6.074;2022-12-08T08:33:00;13.33;;;6.90;;
17618;SDS011;8928;51.678;6.074;2022-12-08T08:35:47;12.27;;;6.67;;
17618;SDS011;8928;51.678;6.074;2022-12-08T08:38:35;13.73;;;7.03;;
17618;SDS011;8928;51.678;6.074;2022-12-08T08:41:24;13.80;;;7.23;;
17618;SDS011;8928;51.678;6.074;2022-12-08T08:44:12;11.87;;;6.53;;
17618;SDS011;8928;51.678;6.074;2022-12-08T08:47:00;12.60;;;6.90;;
17618;SDS011;8928;51.678;6.074;2022-12-08T08:49:47;13.43;;;7.03;;
17618;SDS011;8928;51.678;6.074;2022-12-08T08:52:34;13.17;;;7.30;;
17618;SDS011;8928;51.678;6.074;2022-12-08T08:55:21;12.87;;;6.60;;
17618;SDS011;8928;51.678;6.074;2022-12-08T08:58:08;15.57;;;6.97;;
17618;SDS011;8928;51.678;6.074;2022-12-08T09:00:55;12.87;;;7.00;;
17618;SDS011;8928;51.678;6.074;2022-12-08T09:03:44;16.47;;;7.40;;
17618;SDS011;8928;51.678;6.074;2022-12-08T09:06:31;17.60;;;7.40;;
17618;SDS011;8928;51.678;6.074;2022-12-08T09:09:18;14.47;;;7.83;;
17618;SDS011;8928;51.678;6.074;2022-12-08T09:12:05;13.57;;;7.93;;
17618;SDS011;8928;51.678;6.074;2022-12-08T09:14:53;14.83;;;7.97;;
17618;SDS011;8928;51.678;6.074;2022-12-08T09:17:40;16.53;;;8.17;;
17618;SDS011;8928;51.678;6.074;2022-12-08T09:20:28;16.27;;;8.50;;
17618;SDS011;8928;51.678;6.074;2022-12-08T09:23:15;17.17;;;8.27;;
17618;SDS011;8928;51.678;6.074;2022-12-08T09:26:02;19.00;;;8.37;;
17618;SDS011;8928;51.678;6.074;2022-12-08T09:28:50;16.37;;;8.40;;
17618;SDS011;8928;51.678;6.074;2022-12-08T09:31:38;19.10;;;8.33;;
17618;SDS011;8928;51.678;6.074;2022-12-08T09:34:25;16.83;;;7.67;;
17618;SDS011;8928;51.678;6.074;2022-12-08T09:37:14;19.00;;;8.37;;
17618;SDS011;8928;51.678;6.074;2022-12-08T09:40:01;13.30;;;7.33;;
17618;SDS011;8928;51.678;6.074;2022-12-08T09:42:51;13.97;;;8.10;;
17618;SDS011;8928;51.678;6.074;2022-12-08T09:45:42;16.80;;;8.23;;
17618;SDS011;8928;51.678;6.074;2022-12-08T09:48:31;13.97;;;8.03;;
17618;SDS011;8928;51.678;6.074;2022-12-08T09:51:21;12.53;;;7.13;;
17618;SDS011;8928;51.678;6.074;2022-12-08T09:54:13;12.10;;;6.27;;
17618;SDS011;8928;51.678;6.074;2022-12-08T09:57:04;12.73;;;6.20;;
17618;SDS011;8928;51.678;6.074;2022-12-08T10:00:00;9.90;;;5.40;;
17618;SDS011;8928;51.678;6.074;2022-12-08T10:02:51;8.20;;;4.57;;
17618;SDS011;8928;51.678;6.074;2022-12-08T10:05:40;7.73;;;4.47;;
17618;SDS011;8928;51.678;6.074;2022-12-08T10:08:34;7.77;;;4.50;;
17618;SDS011;8928;51.678;6.074;2022-12-08T10:11:31;12.87;;;4.57;;
17618;SDS011;8928;51.678;6.074;2022-12-08T10:14:25;7.63;;;4.00;;
17618;SDS011;8928;51.678;6.074;2022-12-08T10:17:21;7.10;;;3.27;;
17618;SDS011;8928;51.678;6.074;2022-12-08T10:20:11;9.47;;;4.53;;
17618;SDS011;8928;51.678;6.074;2022-12-08T10:23:03;8.50;;;3.97;;
17618;SDS011;8928;51.678;6.074;2022-12-08T10:25:55;8.50;;;4.50;;
17618;SDS011;8928;51.678;6.074;2022-12-08T10:28:48;9.20;;;4.70;;
17618;SDS011;8928;51.678;6.074;2022-12-08T10:31:35;10.67;;;4.77;;
17618;SDS011;8928;51.678;6.074;2022-12-08T10:34:22;7.87;;;3.60;;
17618;SDS011;8928;51.678;6.074;2022-12-08T10:37:10;7.97;;;3.60;;
17618;SDS011;8928;51.678;6.074;2022-12-08T10:40:05;6.17;;;3.33;;
17618;SDS011;8928;51.678;6.074;2022-12-08T10:42:56;8.80;;;4.60;;
17618;SDS011;8928;51.678;6.074;2022-12-08T10:45:46;9.50;;;4.33;;
17618;SDS011;8928;51.678;6.074;2022-12-08T10:48:33;6.87;;;2.73;;
17618;SDS011;8928;51.678;6.074;2022-12-08T10:51:30;7.23;;;3.00;;
17618;SDS011;8928;51.678;6.074;2022-12-08T10:54:25;6.17;;;2.70;;
17618;SDS011;8928;51.678;6.074;2022-12-08T10:57:18;7.27;;;3.20;;
17618;SDS011;8928;51.678;6.074;2022-12-08T11:00:09;8.43;;;3.10;;
17618;SDS011;8928;51.678;6.074;2022-12-08T11:03:00;7.23;;;3.10;;
17618;SDS011;8928;51.678;6.074;2022-12-08T11:05:48;7.80;;;3.50;;
17618;SDS011;8928;51.678;6.074;2022-12-08T11:08:42;5.77;;;2.63;;
17618;SDS011;8928;51.678;6.074;2022-12-08T11:11:39;3.77;;;2.00;;
17618;SDS011;8928;51.678;6.074;2022-12-08T11:14:31;4.00;;;2.20;;
17618;SDS011;8928;51.678;6.074;2022-12-08T11:17:23;4.00;;;2.30;;
17618;SDS011;8928;51.678;6.074;2022-12-08T11:20:20;5.57;;;2.20;;
17618;SDS011;8928;51.678;6.074;2022-12-08T11:23:18;9.50;;;2.60;;
17618;SDS011;8928;51.678;6.074;2022-12-08T11:29:13;4.87;;;3.20;;
17618;SDS011;8928;51.678;6.074;2022-12-08T11:32:05;5.53;;;3.10;;
17618;SDS011;8928;51.678;6.074;2022-12-08T11:34:58;6.47;;;3.13;;
17618;SDS011;8928;51.678;6.074;2022-12-08T11:37:48;6.77;;;3.13;;
17618;SDS011;8928;51.678;6.074;2022-12-08T11:40:36;5.80;;;3.23;;
17618;SDS011;8928;51.678;6.074;2022-12-08T11:43:26;8.67;;;3.50;;
17618;SDS011;8928;51.678;6.074;2022-12-08T11:46:19;5.83;;;3.67;;
17618;SDS011;8928;51.678;6.074;2022-12-08T11:49:09;7.07;;;4.30;;
17618;SDS011;8928;51.678;6.074;2022-12-08T11:51:58;7.67;;;4.60;;
17618;SDS011;8928;51.678;6.074;2022-12-08T11:54:51;7.17;;;4.80;;
17618;SDS011;8928;51.678;6.074;2022-12-08T11:57:43;7.43;;;4.93;;
17618;SDS011;8928;51.678;6.074;2022-12-08T12:00:31;9.97;;;5.53;;
17618;SDS011;8928;51.678;6.074;2022-12-08T12:03:20;9.07;;;5.07;;
17618;SDS011;8928;51.678;6.074;2022-12-08T12:06:18;9.70;;;5.90;;
17618;SDS011;8928;51.678;6.074;2022-12-08T12:09:18;13.03;;;6.40;;
17618;SDS011;8928;51.678;6.074;2022-12-08T12:12:19;10.73;;;6.17;;
17618;SDS011;8928;51.678;6.074;2022-12-08T12:15:20;13.90;;;6.60;;
17618;SDS011;8928;51.678;6.074;2022-12-08T12:18:30;14.23;;;6.93;;
17618;SDS011;8928;51.678;6.074;2022-12-08T12:21:21;12.43;;;7.10;;
17618;SDS011;8928;51.678;6.074;2022-12-08T12:24:15;13.10;;;6.73;;
17618;SDS011;8928;51.678;6.074;2022-12-08T12:27:05;13.67;;;7.37;;
17618;SDS011;8928;51.678;6.074;2022-12-08T12:30:17;10.77;;;6.90;;
17618;SDS011;8928;51.678;6.074;2022-12-08T12:33:06;11.17;;;7.40;;
17618;SDS011;8928;51.678;6.074;2022-12-08T12:36:00;13.60;;;7.50;;
17618;SDS011;8928;51.678;6.074;2022-12-08T12:38:50;14.53;;;7.80;;
17618;SDS011;8928;51.678;6.074;2022-12-08T12:41:51;13.07;;;7.57;;
17618;SDS011;8928;51.678;6.074;2022-12-08T12:44:40;16.43;;;7.27;;
17618;SDS011;8928;51.678;6.074;2022-12-08T12:50:42;11.67;;;6.93;;
17618;SDS011;8928;51.678;6.074;2022-12-08T12:53:46;12.63;;;6.87;;
17618;SDS011;8928;51.678;6.074;2022-12-08T12:56:48;11.80;;;6.23;;
17618;SDS011;8928;51.678;6.074;2022-12-08T12:59:42;10.90;;;6.10;;
17618;SDS011;8928;51.678;6.074;2022-12-08T13:02:31;11.93;;;5.90;;
17618;SDS011;8928;51.678;6.074;2022-12-08T13:05:19;9.97;;;5.67;;
17618;SDS011;8928;51.678;6.074;2022-12-08T13:08:15;10.57;;;6.10;;
17618;SDS011;8928;51.678;6.074;2022-12-08T13:11:07;10.77;;;6.57;;
17618;SDS011;8928;51.678;6.074;2022-12-08T13:13:56;10.60;;;6.30;;
17618;SDS011;8928;51.678;6.074;2022-12-08T13:16:45;10.60;;;6.10;;
17618;SDS011;8928;51.678;6.074;2022-12-08T13:19:40;13.23;;;6.50;;
17618;SDS011;8928;51.678;6.074;2022-12-08T13:25:49;13.47;;;6.17;;
17618;SDS011;8928;51.678;6.074;2022-12-08T13:32:12;9.57;;;5.57;;
17618;SDS011;8928;51.678;6.074;2022-12-08T13:35:41;8.63;;;4.90;;
17618;SDS011;8928;51.678;6.074;2022-12-08T13:38:34;7.63;;;4.30;;
17618;SDS011;8928;51.678;6.074;2022-12-08T13:41:28;5.83;;;3.77;;
17618;SDS011;8928;51.678;6.074;2022-12-08T13:44:20;8.17;;;4.57;;
17618;SDS011;8928;51.678;6.074;2022-12-08T13:47:12;15.90;;;9.10;;
17618;SDS011;8928;51.678;6.074;2022-12-08T13:50:05;20.30;;;10.03;;
17618;SDS011;8928;51.678;6.074;2022-12-08T13:52:59;16.60;;;8.50;;
17618;SDS011;8928;51.678;6.074;2022-12-08T13:55:48;15.00;;;8.37;;
17618;SDS011;8928;51.678;6.074;2022-12-08T13:58:38;16.00;;;9.10;;
17618;SDS011;8928;51.678;6.074;2022-12-08T14:01:25;17.57;;;9.67;;
17618;SDS011;8928;51.678;6.074;2022-12-08T14:04:13;20.07;;;10.73;;
17618;SDS011;8928;51.678;6.074;2022-12-08T14:07:02;18.83;;;10.67;;
17618;SDS011;8928;51.678;6.074;2022-12-08T14:09:49;19.47;;;11.00;;
17618;SDS011;8928;51.678;6.074;2022-12-08T14:12:38;21.30;;;11.80;;
17618;SDS011;8928;51.678;6.074;2022-12-08T14:15:32;22.57;;;12.10;;
17618;SDS011;8928;51.678;6.074;2022-12-08T14:18:21;24.13;;;12.63;;
17618;SDS011;8928;51.678;6.074;2022-12-08T14:21:10;23.53;;;12.43;;
17618;SDS011;8928;51.678;6.074;2022-12-08T14:24:00;24.10;;;13.00;;
17618;SDS011;8928;51.678;6.074;2022-12-08T14:26:49;26.63;;;13.97;;
17618;SDS011;8928;51.678;6.074;2022-12-08T14:29:39;22.80;;;13.27;;
17618;SDS011;8928;51.678;6.074;2022-12-08T14:32:30;23.27;;;13.03;;
17618;SDS011;8928;51.678;6.074;2022-12-08T14:35:21;24.40;;;13.57;;
17618;SDS011;8928;51.678;6.074;2022-12-08T14:38:11;23.30;;;12.97;;
17618;SDS011;8928;51.678;6.074;2022-12-08T14:41:00;24.37;;;13.63;;
17618;SDS011;8928;51.678;6.074;2022-12-08T14:43:56;23.87;;;13.63;;
17618;SDS011;8928;51.678;6.074;2022-12-08T14:49:51;24.53;;;13.60;;
17618;SDS011;8928;51.678;6.074;2022-12-08T14:52:40;27.63;;;14.20;;
17618;SDS011;8928;51.678;6.074;2022-12-08T14:55:32;28.10;;;14.17;;
17618;SDS011;8928;51.678;6.074;2022-12-08T14:58:23;27.37;;;14.43;;
17618;SDS011;8928;51.678;6.074;2022-12-08T15:01:14;25.20;;;14.20;;
17618;SDS011;8928;51.678;6.074;2022-12-08T15:04:07;26.23;;;14.50;;
17618;SDS011;8928;51.678;6.074;2022-12-08T15:07:03;25.33;;;14.30;;
17618;SDS011;8928;51.678;6.074;2022-12-08T15:10:05;27.53;;;14.33;;
17618;SDS011;8928;51.678;6.074;2022-12-08T15:12:59;24.90;;;14.20;;
17618;SDS011;8928;51.678;6.074;2022-12-08T15:15:50;25.97;;;13.97;;
17618;SDS011;8928;51.678;6.074;2022-12-08T15:18:38;30.40;;;14.10;;
17618;SDS011;8928;51.678;6.074;2022-12-08T15:21:27;24.47;;;13.97;;
17618;SDS011;8928;51.678;6.074;2022-12-08T15:24:17;23.97;;;13.80;;
17618;SDS011;8928;51.678;6.074;2022-12-08T15:27:08;23.43;;;12.87;;
17618;SDS011;8928;51.678;6.074;2022-12-08T15:30:01;23.27;;;12.83;;
17618;SDS011;8928;51.678;6.074;2022-12-08T15:32:48;21.50;;;12.33;;
17618;SDS011;8928;51.678;6.074;2022-12-08T15:35:37;22.93;;;12.73;;
17618;SDS011;8928;51.678;6.074;2022-12-08T15:38:24;25.43;;;12.03;;
17618;SDS011;8928;51.678;6.074;2022-12-08T15:41:14;18.33;;;10.63;;
17618;SDS011;8928;51.678;6.074;2022-12-08T15:44:01;21.77;;;11.17;;
17618;SDS011;8928;51.678;6.074;2022-12-08T15:46:48;16.37;;;9.67;;
17618;SDS011;8928;51.678;6.074;2022-12-08T15:49:35;17.03;;;9.17;;
17618;SDS011;8928;51.678;6.074;2022-12-08T15:52:23;14.13;;;7.97;;
17618;SDS011;8928;51.678;6.074;2022-12-08T15:55:11;15.97;;;8.43;;
17618;SDS011;8928;51.678;6.074;2022-12-08T15:58:00;16.13;;;8.53;;
17618;SDS011;8928;51.678;6.074;2022-12-08T16:00:47;14.03;;;8.40;;
17618;SDS011;8928;51.678;6.074;2022-12-08T16:03:35;13.90;;;8.33;;
17618;SDS011;8928;51.678;6.074;2022-12-08T16:06:22;16.23;;;9.00;;
17618;SDS011;8928;51.678;6.074;2022-12-08T16:09:16;19.30;;;9.13;;
17618;SDS011;8928;51.678;6.074;2022-12-08T16:12:05;20.77;;;9.77;;
17618;SDS011;8928;51.678;6.074;2022-12-08T16:15:18;16.10;;;9.07;;
17618;SDS011;8928;51.678;6.074;2022-12-08T16:18:05;17.10;;;9.37;;
17618;SDS011;8928;51.678;6.074;2022-12-08T16:20:52;19.10;;;9.40;;
17618;SDS011;8928;51.678;6.074;2022-12-08T16:23:40;16.97;;;9.90;;
17618;SDS011;8928;51.678;6.074;2022-12-08T16:26:27;16.20;;;9.63;;
17618;SDS011;8928;51.678;6.074;2022-12-08T16:29:16;19.77;;;9.93;;
17618;SDS011;8928;51.678;6.074;2022-12-08T16:32:06;16.43;;;9.97;;
17618;SDS011;8928;51.678;6.074;2022-12-08T16:34:53;17.40;;;10.20;;
17618;SDS011;8928;51.678;6.074;2022-12-08T16:37:40;18.33;;;10.30;;
17618;SDS011;8928;51.678;6.074;2022-12-08T16:40:27;18.93;;;10.60;;
17618;SDS011;8928;51.678;6.074;2022-12-08T16:43:14;19.30;;;10.77;;
17618;SDS011;8928;51.678;6.074;2022-12-08T16:46:01;25.33;;;11.37;;
17618;SDS011;8928;51.678;6.074;2022-12-08T16:48:50;28.77;;;14.27;;
17618;SDS011;8928;51.678;6.074;2022-12-08T16:51:37;28.13;;;15.17;;
17618;SDS011;8928;51.678;6.074;2022-12-08T16:54:24;27.17;;;14.03;;
17618;SDS011;8928;51.678;6.074;2022-12-08T16:57:11;22.77;;;12.97;;
17618;SDS011;8928;51.678;6.074;2022-12-08T16:59:58;22.80;;;11.07;;
17618;SDS011;8928;51.678;6.074;2022-12-08T17:02:45;19.37;;;11.00;;
17618;SDS011;8928;51.678;6.074;2022-12-08T17:05:33;18.97;;;10.37;;
17618;SDS011;8928;51.678;6.074;2022-12-08T17:08:21;18.93;;;9.60;;
17618;SDS011;8928;51.678;6.074;2022-12-08T17:11:08;17.77;;;10.03;;
17618;SDS011;8928;51.678;6.074;2022-12-08T17:13:57;19.30;;;9.50;;
17618;SDS011;8928;51.678;6.074;2022-12-08T17:16:44;19.40;;;9.57;;
17618;SDS011;8928;51.678;6.074;2022-12-08T17:19:31;17.60;;;9.50;;
17618;SDS011;8928;51.678;6.074;2022-12-08T17:22:20;18.10;;;9.83;;
17618;SDS011;8928;51.678;6.074;2022-12-08T17:25:07;20.23;;;10.57;;